createdAt,value
2019-02-26T00:01:58.003Z,1.87
2019-02-26T00:04:27.397Z,2.00
2019-02-26T00:07:00.678Z,1.80
2019-02-26T00:09:30.502Z,1.70
2019-02-26T00:11:59.849Z,1.97
2019-02-26T00:14:30.282Z,1.93
2019-02-26T00:17:00.895Z,1.70
2019-02-26T00:19:31.377Z,1.87
2019-02-26T00:22:02.495Z,1.53
2019-02-26T00:24:35.077Z,1.77
2019-02-26T00:27:03.248Z,1.80
2019-02-26T00:29:32.240Z,1.80
2019-02-26T00:32:03.866Z,1.73
2019-02-26T00:34:36.758Z,1.70
2019-02-26T00:37:08.479Z,1.80
2019-02-26T00:39:37.028Z,1.80
2019-02-26T00:42:07.483Z,1.63
2019-02-26T00:44:38.078Z,1.80
2019-02-26T00:47:08.996Z,1.73
2019-02-26T00:49:38.537Z,1.50
2019-02-26T00:52:08.710Z,2.00
2019-02-26T00:54:38.304Z,1.40
2019-02-26T00:57:08.705Z,1.80
2019-02-26T00:59:41.257Z,1.83
2019-02-26T01:02:11.077Z,2.00
2019-02-26T01:04:41.541Z,1.40
2019-02-26T01:07:12.520Z,1.80
2019-02-26T01:09:43.325Z,1.83
2019-02-26T01:12:16.185Z,1.70
2019-02-26T01:14:45.792Z,1.80
2019-02-26T01:17:14.852Z,1.83
2019-02-26T01:19:44.272Z,1.77
2019-02-26T01:22:16.282Z,1.60
2019-02-26T01:24:44.684Z,1.80
2019-02-26T01:27:14.129Z,1.70
2019-02-26T01:29:44.547Z,1.77
2019-02-26T01:32:13.789Z,1.57
2019-02-26T01:34:44.999Z,1.50
2019-02-26T01:37:15.017Z,1.60
2019-02-26T01:39:44.856Z,1.50
2019-02-26T01:42:18.001Z,1.80
2019-02-26T01:44:47.405Z,1.40
2019-02-26T01:47:19.496Z,1.47
2019-02-26T01:49:51.035Z,1.57
2019-02-26T01:52:19.220Z,1.47
2019-02-26T01:54:47.652Z,1.87
2019-02-26T01:57:17.370Z,1.57
2019-02-26T01:59:49.906Z,1.50
2019-02-26T02:02:20.084Z,1.63
2019-02-26T02:04:47.450Z,1.70
2019-02-26T02:07:16.429Z,1.30
2019-02-26T02:09:48.673Z,1.20
2019-02-26T02:12:15.188Z,1.17
2019-02-26T02:14:46.549Z,1.73
2019-02-26T02:17:16.602Z,1.70
2019-02-26T02:19:45.015Z,1.37
2019-02-26T02:22:16.818Z,1.60
2019-02-26T02:24:46.684Z,1.60
2019-02-26T02:27:19.572Z,1.70
2019-02-26T02:29:48.826Z,1.50
2019-02-26T02:32:23.430Z,1.47
2019-02-26T02:34:58.321Z,1.60
2019-02-26T02:37:27.594Z,1.53
2019-02-26T02:39:58.125Z,1.40
2019-02-26T02:42:26.566Z,1.40
2019-02-26T02:44:56.525Z,1.63
2019-02-26T02:47:25.763Z,1.50
2019-02-26T02:49:56.349Z,1.70
2019-02-26T02:52:27.030Z,1.70
2019-02-26T02:54:56.381Z,1.50
2019-02-26T02:57:26.666Z,1.30
2019-02-26T02:59:56.906Z,1.67
2019-02-26T03:02:25.570Z,1.60
2019-02-26T03:04:54.003Z,1.40
2019-02-26T03:07:27.477Z,1.77
2019-02-26T03:10:00.458Z,1.47
2019-02-26T03:12:28.553Z,1.23
2019-02-26T03:14:59.879Z,1.40
2019-02-26T03:17:28.541Z,1.60
2019-02-26T03:19:58.584Z,1.50
2019-02-26T03:22:28.389Z,1.20
2019-02-26T03:25:02.261Z,1.40
2019-02-26T03:27:33.645Z,1.40
2019-02-26T03:30:03.035Z,1.37
2019-02-26T03:32:31.719Z,1.37
2019-02-26T03:35:04.304Z,1.63
2019-02-26T03:37:34.652Z,1.60
2019-02-26T03:40:05.934Z,1.17
2019-02-26T03:42:36.501Z,1.40
2019-02-26T03:45:06.393Z,1.10
2019-02-26T03:47:35.393Z,1.17
2019-02-26T03:50:08.523Z,1.57
2019-02-26T03:52:35.343Z,1.10
2019-02-26T03:55:08.206Z,1.40
2019-02-26T03:57:40.976Z,1.37
2019-02-26T04:00:14.951Z,1.40
2019-02-26T04:02:47.714Z,1.20
2019-02-26T04:05:16.638Z,1.47
2019-02-26T04:07:45.066Z,1.40
2019-02-26T04:10:13.932Z,1.50
2019-02-26T04:12:45.076Z,1.40
2019-02-26T04:15:15.570Z,1.30
2019-02-26T04:17:43.997Z,1.30
2019-02-26T04:20:13.462Z,1.60
2019-02-26T04:22:42.898Z,1.27
2019-02-26T04:25:36.009Z,1.30
2019-02-26T04:28:13.429Z,1.13
2019-02-26T04:31:02.610Z,1.40
2019-02-26T04:33:55.668Z,1.43
2019-02-26T04:36:29.348Z,1.23
2019-02-26T04:39:22.237Z,1.30
2019-02-26T04:42:09.453Z,1.50
2019-02-26T04:44:58.935Z,1.50
2019-02-26T04:47:40.687Z,1.20
2019-02-26T04:50:09.233Z,1.37
2019-02-26T04:52:40.532Z,1.50
2019-02-26T04:55:10.482Z,1.50
2019-02-26T04:57:42.609Z,1.27
2019-02-26T05:00:11.789Z,1.67
2019-02-26T05:02:40.954Z,1.47
2019-02-26T05:05:09.386Z,1.60
2019-02-26T05:07:41.177Z,1.57
2019-02-26T05:10:08.393Z,1.23
2019-02-26T05:12:39.562Z,1.40
2019-02-26T05:15:11.647Z,1.17
2019-02-26T05:17:38.183Z,1.47
2019-02-26T05:20:12.864Z,1.40
2019-02-26T05:22:40.657Z,1.30
2019-02-26T05:25:16.725Z,1.40
2019-02-26T05:27:46.045Z,1.50
2019-02-26T05:30:16.499Z,1.20
2019-02-26T05:32:43.423Z,1.50
2019-02-26T05:35:14.135Z,1.30
2019-02-26T05:37:41.929Z,1.20
2019-02-26T05:40:13.326Z,1.40
2019-02-26T05:42:48.169Z,1.67
2019-02-26T05:45:18.314Z,1.30
2019-02-26T05:47:50.834Z,1.27
2019-02-26T05:50:18.985Z,1.40
2019-02-26T05:52:49.818Z,1.20
2019-02-26T05:55:20.570Z,1.60
2019-02-26T05:57:50.250Z,1.17
2019-02-26T06:00:22.643Z,1.10
2019-02-26T06:02:51.106Z,1.30
2019-02-26T06:05:20.447Z,1.50
2019-02-26T06:07:52.106Z,1.43
2019-02-26T06:10:21.556Z,1.10
2019-02-26T06:12:51.352Z,1.23
2019-02-26T06:15:22.968Z,1.30
2019-02-26T06:17:55.837Z,1.27
2019-02-26T06:20:29.259Z,1.13
2019-02-26T06:22:57.262Z,1.10
2019-02-26T06:25:26.673Z,1.30
2019-02-26T06:27:55.881Z,1.47
2019-02-26T06:30:24.598Z,1.43
2019-02-26T06:32:53.263Z,1.00
2019-02-26T06:35:22.722Z,1.20
2019-02-26T06:37:53.612Z,1.20
2019-02-26T06:40:23.869Z,1.00
2019-02-26T06:42:52.285Z,1.13
2019-02-26T06:45:20.714Z,1.80
2019-02-26T06:47:52.249Z,1.77
2019-02-26T06:50:20.994Z,2.07
2019-02-26T06:52:50.836Z,1.53
2019-02-26T06:55:30.755Z,1.37
2019-02-26T06:58:19.296Z,1.77
2019-02-26T07:00:48.994Z,1.30
2019-02-26T07:03:18.303Z,1.83
2019-02-26T07:05:46.834Z,1.30
2019-02-26T07:08:15.544Z,1.20
2019-02-26T07:10:43.954Z,1.63
2019-02-26T07:13:15.637Z,1.63
2019-02-26T07:15:47.201Z,1.40
2019-02-26T07:18:19.018Z,1.47
2019-02-26T07:20:47.475Z,1.30
2019-02-26T07:23:19.034Z,1.23
2019-02-26T07:25:50.964Z,1.30
2019-02-26T07:28:20.628Z,1.30
2019-02-26T07:30:50.036Z,1.40
2019-02-26T07:33:18.614Z,1.83
2019-02-26T07:35:47.262Z,1.40
2019-02-26T07:38:18.262Z,1.73
2019-02-26T07:40:49.925Z,1.63
2019-02-26T07:43:20.056Z,1.40
2019-02-26T07:45:48.433Z,1.30
2019-02-26T07:48:21.069Z,1.33
2019-02-26T07:50:50.714Z,1.50
2019-02-26T07:53:21.643Z,1.30
2019-02-26T07:55:50.516Z,1.20
2019-02-26T07:58:20.189Z,1.40
2019-02-26T08:00:52.239Z,1.23
2019-02-26T08:03:24.760Z,1.47
2019-02-26T08:05:54.421Z,1.50
2019-02-26T08:08:23.757Z,1.20
2019-02-26T08:10:55.641Z,1.53
2019-02-26T08:13:28.469Z,1.30
2019-02-26T08:16:00.210Z,1.30
2019-02-26T08:18:28.899Z,1.30
2019-02-26T08:21:00.725Z,1.40
2019-02-26T08:23:28.943Z,1.23
2019-02-26T08:25:59.586Z,1.30
2019-02-26T08:28:28.719Z,1.00
2019-02-26T08:31:00.286Z,1.10
2019-02-26T08:33:28.739Z,1.23
2019-02-26T08:36:00.294Z,1.50
2019-02-26T08:38:30.004Z,1.50
2019-02-26T08:40:58.938Z,1.30
2019-02-26T08:43:27.347Z,1.33
2019-02-26T08:45:55.789Z,1.47
2019-02-26T08:48:24.671Z,1.40
2019-02-26T08:50:55.821Z,1.20
2019-02-26T08:53:26.653Z,1.43
2019-02-26T08:55:56.793Z,1.40
2019-02-26T08:58:28.310Z,1.23
2019-02-26T09:00:58.314Z,1.30
2019-02-26T09:03:26.986Z,1.30
2019-02-26T09:06:09.913Z,1.40
2019-02-26T09:08:25.748Z,1.67
2019-02-26T09:10:55.771Z,1.60
2019-02-26T09:13:25.514Z,1.50
2019-02-26T09:15:58.046Z,1.60
2019-02-26T09:18:28.066Z,1.37
2019-02-26T09:20:56.814Z,2.20
2019-02-26T09:23:25.768Z,1.40
2019-02-26T09:25:57.758Z,1.67
2019-02-26T09:28:29.468Z,1.30
2019-02-26T09:31:03.716Z,1.40
2019-02-26T09:33:33.087Z,1.30
2019-02-26T09:36:01.704Z,1.80
2019-02-26T09:38:31.162Z,1.30
2019-02-26T09:40:59.886Z,1.33
2019-02-26T09:43:28.285Z,1.73
2019-02-26T09:45:57.763Z,1.63
2019-02-26T09:48:27.873Z,1.50
2019-02-26T09:50:57.928Z,1.50
2019-02-26T09:53:26.618Z,1.40
2019-02-26T09:55:58.061Z,1.40
2019-02-26T09:58:29.832Z,1.60
2019-02-26T10:00:58.484Z,1.60
2019-02-26T10:03:29.557Z,1.60
2019-02-26T10:06:03.187Z,1.50
2019-02-26T10:08:32.393Z,1.50
2019-02-26T10:11:02.728Z,1.40
2019-02-26T10:13:33.261Z,1.53
2019-02-26T10:16:04.028Z,1.60
2019-02-26T10:18:34.404Z,1.50
2019-02-26T10:21:08.618Z,1.60
2019-02-26T10:23:38.022Z,1.93
2019-02-26T10:26:10.684Z,1.83
2019-02-26T10:28:42.663Z,1.93
2019-02-26T10:31:12.994Z,2.50
2019-02-26T10:33:45.785Z,2.00
2019-02-26T10:36:15.515Z,2.17
2019-02-26T10:38:43.428Z,2.40
2019-02-26T10:41:11.870Z,2.20
2019-02-26T10:43:42.701Z,2.20
2019-02-26T10:46:12.568Z,2.10
2019-02-26T10:48:43.890Z,2.07
2019-02-26T10:51:17.171Z,1.97
2019-02-26T10:53:48.015Z,2.23
2019-02-26T10:56:18.086Z,2.30
2019-02-26T10:58:49.061Z,2.10
2019-02-26T11:01:22.708Z,2.00
2019-02-26T11:03:52.917Z,2.00
2019-02-26T11:06:24.121Z,1.83
2019-02-26T11:08:55.725Z,1.80
2019-02-26T11:11:30.523Z,2.00
2019-02-26T11:14:01.598Z,1.70
2019-02-26T11:16:35.261Z,2.20
2019-02-26T11:19:04.376Z,1.70
2019-02-26T11:21:34.751Z,1.80
2019-02-26T11:24:06.096Z,1.77
2019-02-26T11:26:38.140Z,1.80
2019-02-26T11:29:06.582Z,1.80
2019-02-26T11:31:39.750Z,1.63
2019-02-26T11:34:10.979Z,1.63
2019-02-26T11:36:40.988Z,1.80
2019-02-26T11:39:11.932Z,1.40
2019-02-26T11:41:41.892Z,1.60
2019-02-26T11:44:17.611Z,1.97
2019-02-26T11:46:46.739Z,1.80
2019-02-26T11:49:16.872Z,2.00
2019-02-26T11:51:46.857Z,1.83
2019-02-26T11:54:17.570Z,1.93
2019-02-26T11:56:47.296Z,1.80
2019-02-26T11:59:19.335Z,2.10
2019-02-26T12:01:47.101Z,1.77
2019-02-26T12:04:17.557Z,2.00
2019-02-26T12:06:49.262Z,2.00
2019-02-26T12:09:21.516Z,2.07
2019-02-26T12:11:51.329Z,1.60
2019-02-26T12:14:24.246Z,1.90
2019-02-26T12:16:55.503Z,1.77
2019-02-26T12:19:28.217Z,1.73
2019-02-26T12:22:03.529Z,1.80
2019-02-26T12:24:33.630Z,1.80
2019-02-26T12:27:03.631Z,1.70
2019-02-26T12:29:33.769Z,1.83
2019-02-26T12:32:04.795Z,1.90
2019-02-26T12:34:38.390Z,1.70
2019-02-26T12:37:09.842Z,1.60
2019-02-26T12:39:38.612Z,1.40
2019-02-26T12:42:08.058Z,1.90
2019-02-26T12:44:44.818Z,1.90
2019-02-26T12:47:18.742Z,1.60
2019-02-26T12:49:46.668Z,1.63
2019-02-26T12:52:17.972Z,1.53
2019-02-26T12:54:49.340Z,1.60
2019-02-26T12:57:23.041Z,1.80
2019-02-26T12:59:52.041Z,1.80
2019-02-26T13:02:21.830Z,1.70
2019-02-26T13:04:53.377Z,1.90
2019-02-26T13:07:22.498Z,1.57
2019-02-26T13:12:31.510Z,1.63
2019-02-26T13:15:03.230Z,2.00
2019-02-26T13:17:32.086Z,1.90
2019-02-26T13:20:01.021Z,1.73
2019-02-26T13:22:29.665Z,1.70
2019-02-26T13:25:03.575Z,1.50
2019-02-26T13:27:35.205Z,1.80
2019-02-26T13:30:06.537Z,1.80
2019-02-26T13:32:54.422Z,1.67
2019-02-26T13:35:08.077Z,1.60
2019-02-26T13:37:42.043Z,1.50
2019-02-26T13:40:15.785Z,1.90
2019-02-26T13:42:49.910Z,1.40
2019-02-26T13:45:19.222Z,1.53
2019-02-26T13:47:52.381Z,1.50
2019-02-26T13:50:30.430Z,1.30
2019-02-26T13:52:59.377Z,1.33
2019-02-26T13:55:27.851Z,1.50
2019-02-26T13:57:58.815Z,1.40
2019-02-26T14:00:31.725Z,1.20
2019-02-26T14:03:04.399Z,1.50
2019-02-26T14:05:38.193Z,1.50
2019-02-26T14:08:06.881Z,1.50
2019-02-26T14:10:35.321Z,1.20
2019-02-26T14:13:04.946Z,1.50
2019-02-26T14:15:34.489Z,1.20
2019-02-26T14:18:06.951Z,1.40
2019-02-26T14:20:35.381Z,1.50
2019-02-26T14:23:04.360Z,1.60
2019-02-26T14:25:33.150Z,1.40
2019-02-26T14:28:03.288Z,1.40
2019-02-26T14:30:32.517Z,1.53
2019-02-26T14:33:00.924Z,1.40
2019-02-26T14:35:31.324Z,1.40
2019-02-26T14:38:02.859Z,1.10
2019-02-26T14:40:31.260Z,1.50
2019-02-26T14:42:59.696Z,1.67
2019-02-26T14:45:28.175Z,1.47
2019-02-26T14:47:57.189Z,1.30
2019-02-26T14:50:26.492Z,1.33
2019-02-26T14:52:54.937Z,1.50
2019-02-26T14:55:23.357Z,1.33
2019-02-26T14:57:51.793Z,1.40
2019-02-26T15:00:23.475Z,1.37
2019-02-26T15:02:51.971Z,1.50
2019-02-26T15:05:20.386Z,1.33
2019-02-26T15:07:48.801Z,1.70
2019-02-26T15:10:17.240Z,2.10
2019-02-26T15:12:46.135Z,1.97
2019-02-26T15:15:15.509Z,1.93
2019-02-26T15:17:43.928Z,2.13
2019-02-26T15:20:18.389Z,3.10
2019-02-26T15:22:49.718Z,5.00
2019-02-26T15:25:34.878Z,3.30
2019-02-26T15:28:11.953Z,2.60
2019-02-26T15:30:43.660Z,2.03
2019-02-26T15:33:13.798Z,2.40
2019-02-26T15:35:43.692Z,1.97
2019-02-26T15:38:13.746Z,1.90
2019-02-26T15:40:46.804Z,2.00
2019-02-26T15:43:15.248Z,2.10
2019-02-26T15:45:51.786Z,1.80
2019-02-26T15:48:16.105Z,1.60
2019-02-26T15:50:46.070Z,1.80
2019-02-26T15:53:14.506Z,1.40
2019-02-26T15:55:43.053Z,1.60
2019-02-26T15:58:13.914Z,1.70
2019-02-26T16:00:42.325Z,1.50
2019-02-26T16:03:12.105Z,1.57
2019-02-26T16:05:42.183Z,1.70
2019-02-26T16:08:16.925Z,1.50
2019-02-26T16:10:48.614Z,1.57
2019-02-26T16:13:18.983Z,1.00
2019-02-26T16:15:49.709Z,1.47
2019-02-26T16:18:18.119Z,1.50
2019-02-26T16:20:46.552Z,1.57
2019-02-26T16:23:14.975Z,1.40
2019-02-26T16:28:33.115Z,1.80
2019-02-26T16:31:01.973Z,1.60
2019-02-26T16:33:30.534Z,1.30
2019-02-26T16:35:58.998Z,1.90
2019-02-26T16:38:27.393Z,1.93
2019-02-26T16:40:55.804Z,2.03
2019-02-26T16:43:24.294Z,1.70
2019-02-26T16:45:52.715Z,1.77
2019-02-26T16:48:22.865Z,1.70
2019-02-26T16:50:51.315Z,1.83
2019-02-26T16:53:19.759Z,1.83
2019-02-26T16:55:49.102Z,2.00
2019-02-26T16:58:18.020Z,1.90
2019-02-26T17:00:46.558Z,1.90
2019-02-26T17:03:16.610Z,2.13
2019-02-26T17:05:47.448Z,2.00
2019-02-26T17:08:16.268Z,1.97
2019-02-26T17:10:46.359Z,2.23
2019-02-26T17:13:17.018Z,2.30
2019-02-26T17:15:47.263Z,2.13
2019-02-26T17:18:16.254Z,2.03
2019-02-26T17:20:44.736Z,1.83
2019-02-26T17:23:14.041Z,1.77
2019-02-26T17:25:44.981Z,2.10
2019-02-26T17:28:13.433Z,2.10
2019-02-26T17:30:41.855Z,1.90
2019-02-26T17:33:13.266Z,1.93
2019-02-26T17:35:40.421Z,2.10
2019-02-26T17:38:12.891Z,2.00
2019-02-26T17:40:42.572Z,2.00
2019-02-26T17:43:11.023Z,1.90
2019-02-26T17:45:39.567Z,2.60
2019-02-26T17:48:10.130Z,2.00
2019-02-26T17:50:43.328Z,1.77
2019-02-26T17:53:12.059Z,1.60
2019-02-26T17:55:42.148Z,2.10
2019-02-26T17:58:12.211Z,1.70
2019-02-26T18:00:43.104Z,2.03
2019-02-26T18:03:13.632Z,1.80
2019-02-26T18:05:51.152Z,1.73
2019-02-26T18:08:20.035Z,1.90
2019-02-26T18:13:36.952Z,2.03
2019-02-26T18:16:17.760Z,1.73
2019-02-26T18:18:48.932Z,1.77
2019-02-26T18:21:19.622Z,1.70
2019-02-26T18:23:49.690Z,1.50
2019-02-26T18:26:21.223Z,1.97
2019-02-26T18:28:53.174Z,1.70
2019-02-26T18:31:26.522Z,1.73
2019-02-26T18:33:52.665Z,1.60
2019-02-26T18:36:24.098Z,1.70
2019-02-26T18:38:54.016Z,1.60
2019-02-26T18:41:22.998Z,1.70
2019-02-26T18:43:51.437Z,1.87
2019-02-26T18:46:20.783Z,1.60
2019-02-26T18:48:50.605Z,1.50
2019-02-26T18:51:20.740Z,1.70
2019-02-26T18:53:49.834Z,1.70
2019-02-26T18:56:23.834Z,1.73
2019-02-26T18:58:54.310Z,1.60
2019-02-26T19:01:25.157Z,1.43
2019-02-26T19:03:55.491Z,1.80
2019-02-26T19:06:24.688Z,1.80
2019-02-26T19:08:55.987Z,1.97
2019-02-26T19:11:25.640Z,1.67
2019-02-26T19:13:54.449Z,1.40
2019-02-26T19:16:23.717Z,1.93
2019-02-26T19:18:53.882Z,1.40
2019-02-26T19:21:23.418Z,1.40
2019-02-26T19:23:52.776Z,1.47
2019-02-26T19:26:24.026Z,1.60
2019-02-26T19:28:56.737Z,1.30
2019-02-26T19:31:27.602Z,1.70
2019-02-26T19:33:59.466Z,1.40
2019-02-26T19:36:27.880Z,1.33
2019-02-26T19:39:00.489Z,1.57
2019-02-26T19:41:28.009Z,1.50
2019-02-26T19:44:00.020Z,1.37
2019-02-26T19:46:35.197Z,1.73
2019-02-26T19:49:05.704Z,1.70
2019-02-26T19:51:37.003Z,1.27
2019-02-26T19:54:09.526Z,1.30
2019-02-26T19:56:41.017Z,1.50
2019-02-26T19:59:13.492Z,1.30
2019-02-26T20:01:41.535Z,1.33
2019-02-26T20:04:13.768Z,1.50
2019-02-26T20:06:42.430Z,1.80
2019-02-26T20:09:11.654Z,1.43
2019-02-26T20:11:45.253Z,1.57
2019-02-26T20:14:15.870Z,1.30
2019-02-26T20:16:44.697Z,1.70
2019-02-26T20:19:13.110Z,1.43
2019-02-26T20:21:41.545Z,1.37
2019-02-26T20:24:11.229Z,1.40
2019-02-26T20:26:42.420Z,1.30
2019-02-26T20:29:14.022Z,1.23
2019-02-26T20:31:42.731Z,1.50
2019-02-26T20:34:11.440Z,1.50
2019-02-26T20:36:42.285Z,1.27
2019-02-26T20:39:13.658Z,1.40
2019-02-26T20:41:42.198Z,1.20
2019-02-26T20:44:16.647Z,1.30
2019-02-26T20:46:50.542Z,1.37
2019-02-26T20:49:19.333Z,1.43
2019-02-26T20:51:54.136Z,1.40
2019-02-26T20:54:24.113Z,1.67
2019-02-26T20:56:55.897Z,1.50
2019-02-26T20:59:24.862Z,1.37
2019-02-26T21:01:54.763Z,1.80
2019-02-26T21:04:24.860Z,1.50
2019-02-26T21:06:56.182Z,1.30
2019-02-26T21:09:26.155Z,1.17
2019-02-26T21:11:58.445Z,1.40
2019-02-26T21:14:28.349Z,1.33
2019-02-26T21:16:59.453Z,1.40
2019-02-26T21:19:27.914Z,1.30
2019-02-26T21:22:00.957Z,1.30
2019-02-26T21:24:34.650Z,1.10
2019-02-26T21:27:05.781Z,1.20
2019-02-26T21:29:38.704Z,1.47
2019-02-26T21:32:06.638Z,1.30
2019-02-26T21:34:36.150Z,1.30
2019-02-26T21:37:04.870Z,1.20
2019-02-26T21:39:37.329Z,1.30
2019-02-26T21:42:08.062Z,1.30
2019-02-26T21:44:41.669Z,1.30
2019-02-26T21:47:09.996Z,1.43
2019-02-26T21:49:40.941Z,1.30
2019-02-26T21:52:09.567Z,1.13
2019-02-26T21:54:40.269Z,1.30
2019-02-26T21:57:12.268Z,1.57
2019-02-26T21:59:49.811Z,1.23
2019-02-26T22:02:13.430Z,1.40
2019-02-26T22:04:49.128Z,1.00
2019-02-26T22:07:24.910Z,1.47
2019-02-26T22:09:56.135Z,1.50
2019-02-26T22:12:26.621Z,1.73
2019-02-26T22:15:04.257Z,1.43
2019-02-26T22:17:35.999Z,1.57
2019-02-26T22:20:23.365Z,1.30
2019-02-26T22:22:42.398Z,1.30
2019-02-26T22:25:17.023Z,1.40
2019-02-26T22:27:44.194Z,1.20
2019-02-26T22:30:15.405Z,1.43
2019-02-26T22:32:44.526Z,1.40
2019-02-26T22:35:14.081Z,1.30
2019-02-26T22:37:45.328Z,1.30
2019-02-26T22:40:18.444Z,1.30
2019-02-26T22:42:46.873Z,1.23
2019-02-26T22:45:18.684Z,1.30
2019-02-26T22:47:47.123Z,1.00
2019-02-26T22:50:16.890Z,1.30
2019-02-26T22:52:45.669Z,1.40
2019-02-26T22:55:17.590Z,1.40
2019-02-26T22:57:47.458Z,1.20
2019-02-26T23:00:35.945Z,1.30
2019-02-26T23:03:06.482Z,1.50
2019-02-26T23:05:42.741Z,1.43
2019-02-26T23:08:12.466Z,1.17
2019-02-26T23:10:41.386Z,1.43
2019-02-26T23:13:09.803Z,1.37
2019-02-26T23:15:39.719Z,1.23
2019-02-26T23:18:09.730Z,1.20
2019-02-26T23:20:42.591Z,1.33
2019-02-26T23:23:10.129Z,1.30
2019-02-26T23:25:39.597Z,1.40
2019-02-26T23:28:08.276Z,1.30
2019-02-26T23:30:38.234Z,1.20
2019-02-26T23:33:08.039Z,1.30
2019-02-26T23:35:36.704Z,1.10
2019-02-26T23:38:08.386Z,1.20
2019-02-26T23:40:37.088Z,1.30
2019-02-26T23:43:11.763Z,1.30
2019-02-26T23:45:40.637Z,1.17
2019-02-26T23:48:11.055Z,1.30
2019-02-26T23:50:47.144Z,1.00
2019-02-26T23:53:14.319Z,1.20
2019-02-26T23:55:47.186Z,1.17
2019-02-26T23:58:16.987Z,1.20
